Time;durP1;ratioP1;P1;durP2;ratioP2;P2;SDS_P1;SDS_P2;PMS_P1;PMS_P2;Temp;Humidity;BMP_temperature;BMP_pressure;BME280_temperature;BME280_humidity;BME280_pressure;Samples;Min_cycle;Max_cycle;Signal;HPM_P1;HPM_P2
2020/12/25 00:00:06;;;;;;;34.20;15.60;;;5.50;99.90;;;;;;4945979;28;20179;-91
2020/12/25 00:03:15;;;;;;;;;;;;;;;;;;;;;
2020/12/25 00:07:14;;;;;;;;;;;;;;;;;;;;;
2020/12/25 00:09:59;;;;;;;27.00;14.80;;;5.40;99.90;;;;;;4903118;28;20228;-92
2020/12/25 00:12:43;;;;;;;;;;;;;;;;;;;;;
2020/12/25 00:15:46;;;;;;;;;;;;;;;;;;;;;
2020/12/25 00:18:15;;;;;;;33.90;16.13;;;5.60;99.90;;;;;;4945321;28;20650;-91
2020/12/25 00:20:54;;;;;;;30.73;16.50;;;5.30;99.90;;;;;;4958684;28;20302;-91
2020/12/25 00:23:20;;;;;;;33.17;17.03;;;5.60;99.90;;;;;;4942727;28;20646;-89
2020/12/25 00:25:46;;;;;;;39.83;16.83;;;5.50;99.90;;;;;;4942138;28;20186;-90
2020/12/25 00:28:12;;;;;;;30.97;15.17;;;5.40;99.90;;;;;;4974040;28;20186;-90
2020/12/25 00:30:40;;;;;;;34.13;15.40;;;5.30;99.90;;;;;;4942297;28;20205;-90
2020/12/25 00:33:08;;;;;;;25.33;14.70;;;5.50;99.90;;;;;;4957701;28;20292;-90
2020/12/25 00:35:34;;;;;;;30.67;16.00;;;5.40;99.90;;;;;;4957950;28;20314;-89
2020/12/25 00:38:03;;;;;;;33.90;15.70;;;5.40;99.90;;;;;;4957420;28;20588;-90
2020/12/25 00:40:39;;;;;;;26.13;15.03;;;5.40;99.90;;;;;;4958113;28;20273;-91
2020/12/25 00:43:16;;;;;;;27.83;15.03;;;5.60;99.90;;;;;;4958065;28;20181;-91
2020/12/25 00:45:42;;;;;;;26.13;14.40;;;5.60;99.90;;;;;;4957339;28;20195;-90
2020/12/25 00:48:10;;;;;;;28.67;15.13;;;5.40;99.90;;;;;;4957023;28;20281;-90
2020/12/25 00:50:38;;;;;;;25.13;14.33;;;5.50;99.90;;;;;;4941782;28;20193;-90
2020/12/25 00:53:07;;;;;;;25.97;14.07;;;5.40;99.90;;;;;;4957407;28;20193;-90
2020/12/25 00:55:33;;;;;;;27.00;14.60;;;5.30;99.90;;;;;;4957579;28;20337;-90
2020/12/25 00:57:59;;;;;;;24.47;11.97;;;5.80;99.90;;;;;;4956732;28;20182;-90
2020/12/25 01:00:25;;;;;;;28.67;14.53;;;5.70;99.90;;;;;;4957756;28;20192;-89
2020/12/25 01:02:53;;;;;;;29.33;15.40;;;5.50;99.90;;;;;;4941456;28;20183;-91
2020/12/25 01:05:19;;;;;;;31.17;14.03;;;5.50;99.90;;;;;;4941814;28;20183;-89
2020/12/25 01:08:07;;;;;;;27.30;14.10;;;5.60;99.90;;;;;;4941331;28;20667;-92
2020/12/25 01:10:51;;;;;;;23.83;13.40;;;4.60;99.90;;;;;;4957817;28;20283;-92
2020/12/25 01:13:18;;;;;;;25.63;12.43;;;5.10;99.90;;;;;;4955487;28;20194;-89
2020/12/25 01:15:44;;;;;;;21.17;10.97;;;5.60;99.90;;;;;;4957131;28;20228;-89
2020/12/25 01:18:10;;;;;;;22.77;12.47;;;5.50;99.90;;;;;;4957079;28;20182;-89
2020/12/25 01:20:36;;;;;;;23.20;12.00;;;5.70;99.90;;;;;;4957447;28;20256;-89
2020/12/25 01:23:08;;;;;;;23.40;12.20;;;6.10;99.90;;;;;;4956977;28;20236;-89
2020/12/25 01:25:34;;;;;;;21.50;12.63;;;4.00;99.90;;;;;;4940903;28;20193;-91
2020/12/25 01:27:59;;;;;;;17.90;10.93;;;5.40;99.90;;;;;;4957053;28;20737;-89
2020/12/25 01:30:25;;;;;;;16.17;9.53;;;5.60;99.90;;;;;;4956596;28;20242;-89
2020/12/25 01:32:51;;;;;;;21.73;11.37;;;5.50;99.90;;;;;;4941246;28;20198;-90
2020/12/25 01:35:20;;;;;;;17.97;9.93;;;5.40;99.90;;;;;;4956832;28;20240;-90
2020/12/25 01:37:55;;;;;;;15.67;8.87;;;5.40;99.90;;;;;;4973167;28;20224;-90
2020/12/25 01:40:32;;;;;;;16.40;9.57;;;5.70;99.90;;;;;;4972745;28;20182;-90
2020/12/25 01:43:23;;;;;;;18.43;9.83;;;6.00;99.90;;;;;;4973153;28;20180;-90
2020/12/25 01:45:52;;;;;;;14.70;8.10;;;5.50;99.90;;;;;;4949922;28;20193;-90
2020/12/25 01:48:19;;;;;;;15.37;8.43;;;5.40;99.90;;;;;;4972485;28;20185;-90
2020/12/25 01:50:47;;;;;;;16.90;7.90;;;5.50;99.90;;;;;;4973070;28;20181;-90
2020/12/25 01:53:16;;;;;;;12.33;7.23;;;5.20;99.90;;;;;;4972323;28;20663;-89
2020/12/25 01:55:43;;;;;;;10.30;6.60;;;5.60;99.90;;;;;;4972517;28;20181;-88
2020/12/25 01:58:09;;;;;;;10.97;6.73;;;5.40;99.90;;;;;;4974171;28;20185;-89
2020/12/25 02:00:34;;;;;;;10.80;7.47;;;5.70;99.90;;;;;;4972847;28;20186;-89
2020/12/25 02:03:03;;;;;;;9.07;6.73;;;5.40;99.90;;;;;;4972799;28;20624;-89
2020/12/25 02:05:30;;;;;;;7.30;4.87;;;5.50;99.90;;;;;;4956726;28;20204;-89
2020/12/25 02:07:56;;;;;;;11.57;6.63;;;5.80;99.90;;;;;;4972642;28;20209;-89
2020/12/25 02:10:23;;;;;;;8.53;6.27;;;5.10;99.90;;;;;;4972411;28;20196;-88
2020/12/25 02:12:49;;;;;;;10.57;6.90;;;5.00;99.90;;;;;;4972891;28;20174;-88
2020/12/25 02:15:15;;;;;;;11.53;8.40;;;5.10;99.90;;;;;;4972279;28;20653;-88
2020/12/25 02:17:46;;;;;;;13.70;7.63;;;4.80;99.90;;;;;;4956468;28;20188;-88
2020/12/25 02:20:12;;;;;;;14.00;8.57;;;5.40;99.90;;;;;;4972192;28;20256;-89
2020/12/25 02:22:43;;;;;;;10.70;8.23;;;4.80;99.90;;;;;;4972317;28;20222;-87
2020/12/25 02:25:09;;;;;;;7.70;5.83;;;4.90;99.90;;;;;;4972546;28;20249;-89
2020/12/25 02:27:37;;;;;;;8.23;6.30;;;4.70;99.90;;;;;;4972570;28;20659;-87
2020/12/25 02:30:04;;;;;;;5.97;5.17;;;4.40;99.90;;;;;;4976516;28;20215;-89
2020/12/25 02:32:30;;;;;;;4.40;3.60;;;4.00;99.90;;;;;;4976008;28;20180;-88
2020/12/25 02:34:56;;;;;;;8.33;5.23;;;3.90;99.90;;;;;;4975933;28;20232;-88
2020/12/25 02:37:22;;;;;;;4.27;3.70;;;4.40;99.90;;;;;;4975902;28;20246;-88
2020/12/25 02:39:48;;;;;;;4.37;3.50;;;3.70;99.90;;;;;;4977468;28;20177;-91
2020/12/25 02:42:16;;;;;;;4.03;3.00;;;3.90;99.90;;;;;;4975877;28;20241;-90
2020/12/25 02:44:43;;;;;;;3.53;3.03;;;3.80;99.90;;;;;;4976155;28;20179;-90
2020/12/25 02:47:10;;;;;;;3.83;2.87;;;3.70;99.90;;;;;;4976196;28;20255;-89
2020/12/25 02:49:36;;;;;;;8.10;4.63;;;3.90;99.90;;;;;;4975846;28;20606;-90
2020/12/25 02:52:02;;;;;;;8.13;5.13;;;3.90;99.90;;;;;;4976015;28;20277;-90
2020/12/25 02:54:28;;;;;;;3.53;3.10;;;3.60;99.90;;;;;;4975740;28;20270;-90
2020/12/25 02:56:53;;;;;;;5.07;3.07;;;3.60;99.90;;;;;;4975713;28;20274;-89
2020/12/25 02:59:19;;;;;;;4.10;3.10;;;3.20;99.90;;;;;;4975648;28;20190;-89
2020/12/25 03:01:49;;;;;;;6.70;4.33;;;3.50;99.90;;;;;;4975441;28;20635;-90
2020/12/25 03:04:16;;;;;;;3.60;2.93;;;3.60;99.90;;;;;;4975730;28;20191;-90
2020/12/25 03:06:42;;;;;;;5.20;3.53;;;3.40;99.90;;;;;;4975569;28;20211;-90
2020/12/25 03:09:08;;;;;;;6.40;3.87;;;3.70;99.90;;;;;;4975223;28;20196;-90
2020/12/25 03:11:34;;;;;;;5.03;3.60;;;3.50;99.90;;;;;;4958995;28;20197;-90
2020/12/25 03:13:59;;;;;;;5.93;4.03;;;3.60;99.90;;;;;;4975568;28;20180;-91
2020/12/25 03:16:25;;;;;;;6.70;3.60;;;3.50;99.90;;;;;;4974935;28;20550;-90
2020/12/25 03:18:54;;;;;;;5.40;4.00;;;3.40;99.90;;;;;;4975535;28;20186;-91
2020/12/25 03:21:25;;;;;;;6.50;4.43;;;2.60;99.90;;;;;;4975143;28;20654;-90
2020/12/25 03:23:53;;;;;;;4.70;3.90;;;3.50;99.90;;;;;;4959577;28;20191;-91
2020/12/25 03:26:19;;;;;;;5.97;4.27;;;3.20;99.90;;;;;;4959052;28;20211;-90
2020/12/25 03:28:45;;;;;;;6.43;4.27;;;3.20;99.90;;;;;;4975167;28;20716;-91
2020/12/25 03:31:13;;;;;;;6.77;4.47;;;3.30;99.90;;;;;;4975466;28;20210;-90
2020/12/25 03:33:52;;;;;;;6.43;4.63;;;1.70;99.90;;;;;;4974621;28;20702;-90
2020/12/25 03:36:18;;;;;;;5.43;4.40;;;3.40;99.90;;;;;;4975127;28;20183;-90
2020/12/25 03:38:49;;;;;;;6.20;4.30;;;3.10;99.90;;;;;;4974901;28;20193;-92
2020/12/25 03:41:24;;;;;;;4.70;3.53;;;4.80;99.90;;;;;;4959110;28;20210;-90
2020/12/25 03:43:49;;;;;;;6.20;4.30;;;3.30;99.90;;;;;;4975154;28;20183;-89
2020/12/25 03:46:15;;;;;;;6.30;4.50;;;4.00;99.90;;;;;;4974913;28;20640;-89
2020/12/25 03:48:41;;;;;;;6.10;4.90;;;3.30;99.90;;;;;;4974821;28;20219;-90
2020/12/25 03:51:10;;;;;;;8.10;5.07;;;3.10;99.90;;;;;;4958615;28;20226;-91
2020/12/25 03:53:44;;;;;;;6.57;4.70;;;5.80;99.90;;;;;;4974773;28;20269;-91
2020/12/25 03:56:12;;;;;;;6.03;4.73;;;3.10;99.90;;;;;;4975215;28;20186;-91
2020/12/25 03:58:38;;;;;;;9.50;5.87;;;5.60;99.90;;;;;;4974697;28;20180;-90
2020/12/25 04:01:06;;;;;;;10.20;5.60;;;2.90;99.90;;;;;;4974647;28;20636;-91
2020/12/25 04:03:32;;;;;;;10.77;6.30;;;4.40;99.90;;;;;;4974067;28;20271;-90
2020/12/25 04:05:58;;;;;;;11.03;6.03;;;3.00;99.90;;;;;;4974445;28;20258;-89
2020/12/25 04:08:24;;;;;;;9.03;6.53;;;2.90;99.90;;;;;;4958805;28;20195;-89
2020/12/25 04:10:52;;;;;;;10.17;6.70;;;2.90;99.90;;;;;;4958430;28;20633;-89
2020/12/25 04:13:17;;;;;;;9.47;5.77;;;3.00;99.90;;;;;;4974740;28;20274;-89
2020/12/25 04:15:43;;;;;;;9.33;6.67;;;3.10;99.90;;;;;;4973994;28;20629;-90
2020/12/25 04:18:09;;;;;;;8.33;5.70;;;3.40;99.90;;;;;;4974646;28;20274;-91
2020/12/25 04:20:35;;;;;;;6.03;4.27;;;4.80;99.90;;;;;;4957947;28;20644;-90
2020/12/25 04:23:00;;;;;;;7.10;5.30;;;3.00;99.90;;;;;;4958248;28;20184;-90
2020/12/25 04:25:26;;;;;;;7.03;4.97;;;1.90;99.90;;;;;;4973870;28;20183;-89
2020/12/25 04:27:52;;;;;;;8.60;5.43;;;3.10;99.90;;;;;;4973687;28;20203;-87
2020/12/25 04:30:17;;;;;;;4.53;3.17;;;3.00;99.90;;;;;;4973890;28;20271;-88
2020/12/25 04:32:43;;;;;;;6.47;5.73;;;4.90;99.90;;;;;;4974054;28;20507;-91
2020/12/25 04:35:09;;;;;;;8.23;5.80;;;4.10;99.90;;;;;;4974149;28;20239;-90
2020/12/25 04:38:01;;;;;;;6.97;3.80;;;3.20;99.90;;;;;;4957677;28;20186;-91
2020/12/25 04:40:26;;;;;;;8.07;3.87;;;3.90;99.90;;;;;;4959223;28;20554;-90
2020/12/25 04:43:09;;;;;;;11.37;5.63;;;3.30;99.90;;;;;;4973687;28;20189;-92
2020/12/25 04:45:41;;;;;;;7.90;4.87;;;4.80;99.90;;;;;;4973886;28;20272;-91
2020/12/25 04:48:19;;;;;;;6.70;5.33;;;3.10;99.90;;;;;;4973757;28;20678;-91
2020/12/25 04:50:47;;;;;;;9.20;6.03;;;3.20;99.90;;;;;;4973765;28;20187;-91
2020/12/25 04:53:20;;;;;;;10.23;6.63;;;3.20;99.90;;;;;;4973325;28;20198;-91
2020/12/25 04:55:53;;;;;;;8.57;5.83;;;3.10;99.90;;;;;;4973523;28;20192;-92
2020/12/25 04:58:24;;;;;;;8.13;6.10;;;3.10;99.90;;;;;;4958580;28;20671;-91
2020/12/25 05:01:20;;;;;;;;;;;;;;;;;;;;;
2020/12/25 05:04:47;;;;;;;10.03;6.70;;;3.20;99.90;;;;;;4974804;28;20186;-92
2020/12/25 05:07:20;;;;;;;11.63;6.97;;;4.40;99.90;;;;;;4944093;28;20224;-91
2020/12/25 05:09:55;;;;;;;15.37;8.03;;;2.00;99.90;;;;;;4973327;28;20313;-93
2020/12/25 05:12:20;;;;;;;12.97;7.90;;;3.10;99.90;;;;;;4942398;28;20636;-91
2020/12/25 05:14:46;;;;;;;10.10;6.60;;;3.20;99.90;;;;;;4973376;28;20178;-90
2020/12/25 05:17:12;;;;;;;11.43;6.10;;;3.30;99.90;;;;;;4973189;28;20178;-90
2020/12/25 05:19:40;;;;;;;9.13;6.03;;;3.00;99.90;;;;;;4973135;28;20178;-90
2020/12/25 05:22:07;;;;;;;9.37;5.83;;;3.30;99.90;;;;;;4972660;28;20211;-90
2020/12/25 05:24:38;;;;;;;10.13;6.10;;;3.60;99.90;;;;;;4973285;28;20642;-90
2020/12/25 05:27:13;;;;;;;7.87;5.60;;;3.00;99.90;;;;;;4957406;28;20209;-91
2020/12/25 05:29:40;;;;;;;9.63;6.77;;;2.60;99.90;;;;;;4972678;28;20618;-90
2020/12/25 05:32:06;;;;;;;12.83;7.30;;;3.30;99.90;;;;;;4956777;28;20710;-90
2020/12/25 05:34:37;;;;;;;10.00;6.37;;;3.40;99.90;;;;;;4969604;28;20235;-90
2020/12/25 05:37:05;;;;;;;9.77;6.93;;;4.40;99.90;;;;;;4953497;29;20183;-91
2020/12/25 05:39:34;;;;;;;9.07;6.13;;;3.10;99.90;;;;;;4953910;29;20645;-91
2020/12/25 05:42:03;;;;;;;10.30;7.40;;;3.40;99.90;;;;;;4937764;29;20187;-89
2020/12/25 05:44:32;;;;;;;10.87;6.60;;;3.40;99.90;;;;;;4953900;29;20286;-91
2020/12/25 05:47:12;;;;;;;9.93;6.50;;;4.00;99.90;;;;;;4953080;29;20203;-91
2020/12/25 05:49:56;;;;;;;;;;;;;;;;;;;;;
2020/12/25 05:52:22;;;;;;;11.13;7.03;;;3.10;99.90;;;;;;4955042;29;20179;-88
2020/12/25 05:54:55;;;;;;;10.50;7.10;;;3.30;99.90;;;;;;4954462;29;20600;-91
2020/12/25 05:57:33;;;;;;;11.07;7.53;;;3.20;99.90;;;;;;4953451;29;20183;-92
2020/12/25 06:00:04;;;;;;;11.23;7.30;;;3.30;99.90;;;;;;4937544;29;20235;-90
2020/12/25 06:02:36;;;;;;;11.07;7.80;;;3.30;99.90;;;;;;4953867;28;20239;-91
2020/12/25 06:05:07;;;;;;;10.83;6.67;;;3.40;99.90;;;;;;4954003;29;20225;-90
2020/12/25 06:07:36;;;;;;;12.30;8.23;;;3.30;99.90;;;;;;4940602;29;20214;-89
2020/12/25 06:10:05;;;;;;;12.27;7.50;;;3.50;99.90;;;;;;4957745;29;20234;-91
2020/12/25 06:12:51;;;;;;;9.63;6.03;;;3.30;99.90;;;;;;4956318;29;20178;-90
2020/12/25 06:15:36;;;;;;;9.97;6.87;;;3.20;99.90;;;;;;4972779;28;20214;-91
2020/12/25 06:18:42;;;;;;;10.53;7.37;;;2.80;99.90;;;;;;4956007;29;20171;-91
2020/12/25 06:21:16;;;;;;;9.50;7.30;;;3.50;99.90;;;;;;4967406;28;20198;-92
2020/12/25 06:23:43;;;;;;;8.97;6.30;;;3.10;99.90;;;;;;4975376;28;20183;-90
2020/12/25 06:26:11;;;;;;;10.13;6.07;;;3.30;99.90;;;;;;4991173;28;20229;-90
2020/12/25 06:28:43;;;;;;;9.97;6.90;;;3.20;99.90;;;;;;4975510;28;20183;-91
2020/12/25 06:31:42;;;;;;;8.40;5.77;;;3.30;99.90;;;;;;4974878;28;20176;-91
2020/12/25 06:34:08;;;;;;;6.43;5.30;;;3.10;99.90;;;;;;4967798;28;20245;-89
2020/12/25 06:36:34;;;;;;;8.83;6.40;;;2.80;99.90;;;;;;4971046;28;20208;-89
2020/12/25 06:39:08;;;;;;;7.80;5.63;;;5.00;99.90;;;;;;4974889;28;20186;-89
2020/12/25 06:41:39;;;;;;;12.50;7.20;;;3.40;99.90;;;;;;4991363;28;20182;-90
2020/12/25 06:44:16;;;;;;;8.63;5.97;;;3.20;99.90;;;;;;4974673;28;20186;-90
2020/12/25 06:47:00;;;;;;;10.43;7.33;;;3.30;99.90;;;;;;4991244;28;20673;-89
2020/12/25 06:49:35;;;;;;;12.50;8.00;;;3.20;99.90;;;;;;4991722;28;20191;-92
2020/12/25 06:52:01;;;;;;;15.47;9.50;;;3.40;99.90;;;;;;4991414;28;20178;-91
2020/12/25 06:54:27;;;;;;;15.67;9.23;;;3.50;99.90;;;;;;4958593;28;20270;-89
2020/12/25 06:56:54;;;;;;;14.23;9.17;;;4.50;99.90;;;;;;4966079;28;20631;-91
2020/12/25 06:59:23;;;;;;;15.83;9.63;;;3.50;99.90;;;;;;4947993;29;20194;-91
2020/12/25 07:01:52;;;;;;;15.27;9.47;;;3.40;99.90;;;;;;4976593;28;20664;-90
2020/12/25 07:04:33;;;;;;;15.00;8.87;;;1.50;99.90;;;;;;4964080;28;20653;-91
2020/12/25 07:07:04;;;;;;;24.17;16.13;;;3.30;99.90;;;;;;4958366;28;20226;-89
2020/12/25 07:09:38;;;;;;;24.47;14.63;;;5.30;99.90;;;;;;4975657;28;20274;-88
2020/12/25 07:12:16;;;;;;;18.33;11.57;;;3.10;99.90;;;;;;4969809;28;20187;-87
2020/12/25 07:14:43;;;;;;;14.07;8.17;;;;;;;;;;4970279;28;20182;-86
2020/12/25 07:17:09;;;;;;;12.37;8.33;;;;;;;;;;4981752;28;20197;-87
2020/12/25 07:19:37;;;;;;;16.93;9.57;;;3.30;99.90;;;;;;4983317;28;20644;-88
2020/12/25 07:22:04;;;;;;;15.20;9.83;;;3.20;99.90;;;;;;4972741;28;20192;-86
2020/12/25 07:24:30;;;;;;;13.77;9.83;;;3.20;99.90;;;;;;4976510;28;20250;-85
2020/12/25 07:26:56;;;;;;;14.20;9.23;;;;;;;;;;4969135;28;20306;-89
2020/12/25 07:29:22;;;;;;;16.20;9.70;;;;;;;;;;4975491;28;20188;-85
2020/12/25 07:31:51;;;;;;;15.90;10.43;;;3.10;99.90;;;;;;4959195;28;20187;-85
2020/12/25 07:34:21;;;;;;;18.33;10.70;;;3.20;99.90;;;;;;4971897;28;20240;-84
2020/12/25 07:36:51;;;;;;;15.67;9.57;;;4.00;99.90;;;;;;4971350;28;20203;-85
2020/12/25 07:39:17;;;;;;;12.90;9.00;;;3.30;99.90;;;;;;4962084;28;20210;-86
2020/12/25 07:41:44;;;;;;;15.47;9.47;;;3.30;99.90;;;;;;4966903;28;20281;-84
2020/12/25 07:44:10;;;;;;;16.90;8.63;;;;;;;;;;4966604;28;20195;-85
2020/12/25 07:46:37;;;;;;;14.83;10.27;;;4.20;99.90;;;;;;4963894;28;20213;-87
2020/12/25 07:49:04;;;;;;;12.63;7.50;;;;;;;;;;4964286;28;20214;-87
2020/12/25 07:51:30;;;;;;;15.60;9.93;;;;;;;;;;4966644;28;20191;-85
2020/12/25 07:54:00;;;;;;;22.07;12.27;;;3.40;99.90;;;;;;4950122;28;20645;-89
2020/12/25 07:56:30;;;;;;;17.23;10.67;;;3.40;99.90;;;;;;4979999;28;20282;-88
2020/12/25 07:58:57;;;;;;;28.90;17.17;;;;;;;;;;4963737;28;20186;-84
2020/12/25 08:01:27;;;;;;;19.73;10.70;;;3.50;99.90;;;;;;4980226;28;20566;-87
2020/12/25 08:03:53;;;;;;;26.43;12.47;;;;;;;;;;4966182;28;20259;-84
2020/12/25 08:06:27;;;;;;;20.23;12.37;;;3.50;99.90;;;;;;4965547;28;20593;-91
2020/12/25 08:09:05;;;;;;;16.63;10.40;;;3.40;99.90;;;;;;4965525;28;20183;-86
2020/12/25 08:11:31;;;;;;;16.93;9.83;;;3.60;99.90;;;;;;4964941;28;20186;-88
2020/12/25 08:14:11;;;;;;;13.83;9.33;;;3.60;99.90;;;;;;4950182;28;20188;-89
2020/12/25 08:16:38;;;;;;;15.80;10.33;;;3.70;99.90;;;;;;4981172;28;20646;-88
2020/12/25 08:19:07;;;;;;;14.13;9.07;;;3.70;99.90;;;;;;4948757;28;20207;-89
2020/12/25 08:21:36;;;;;;;18.60;11.33;;;3.70;99.90;;;;;;4966556;28;20177;-88
2020/12/25 08:24:02;;;;;;;16.57;10.20;;;;;;;;;;4963879;28;20167;-87
2020/12/25 08:26:32;;;;;;;14.60;9.87;;;3.70;99.90;;;;;;4979947;28;20700;-87
2020/12/25 08:28:58;;;;;;;16.53;10.30;;;;;;;;;;4965718;28;20190;-88
2020/12/25 08:31:25;;;;;;;15.53;9.30;;;;;;;;;;4949591;28;20228;-88
2020/12/25 08:33:55;;;;;;;14.27;9.83;;;3.70;99.90;;;;;;4972289;28;20232;-87
2020/12/25 08:36:21;;;;;;;10.70;6.53;;;;;;;;;;4957768;28;20202;-87
2020/12/25 08:38:47;;;;;;;14.50;9.63;;;;;;;;;;4973794;28;20195;-87
2020/12/25 08:41:13;;;;;;;16.00;9.70;;;3.80;99.90;;;;;;4977505;28;20213;-87
2020/12/25 08:43:39;;;;;;;15.00;8.90;;;;;;;;;;4973534;28;20686;-87
2020/12/25 08:46:05;;;;;;;15.17;9.60;;;3.90;99.90;;;;;;4957313;28;20666;-86
2020/12/25 08:48:33;;;;;;;12.80;8.70;;;4.00;99.90;;;;;;4992961;28;20189;-87
2020/12/25 08:51:11;;;;;;;14.10;8.47;;;4.30;99.90;;;;;;4976209;28;20271;-89
2020/12/25 08:53:38;;;;;;;13.23;8.53;;;4.00;99.90;;;;;;4969193;28;20181;-89
2020/12/25 08:56:18;;;;;;;14.50;10.07;;;4.00;99.90;;;;;;4991393;28;20186;-86
2020/12/25 08:59:06;;;;;;;16.07;9.60;;;4.10;99.90;;;;;;4992611;28;20184;-87
2020/12/25 09:01:34;;;;;;;14.93;8.63;;;4.10;99.90;;;;;;4989635;28;20205;-86
2020/12/25 09:04:00;;;;;;;14.77;9.67;;;;;;;;;;4983722;28;20182;-87
2020/12/25 09:06:27;;;;;;;14.13;8.73;;;;;;;;;;4967021;28;20213;-86
2020/12/25 09:08:53;;;;;;;13.37;9.07;;;;;;;;;;4965421;28;20211;-86
2020/12/25 09:11:22;;;;;;;13.60;9.27;;;4.30;99.90;;;;;;4965020;28;20181;-88
2020/12/25 09:13:48;;;;;;;12.10;8.13;;;4.50;99.90;;;;;;4961253;28;20182;-87
2020/12/25 09:16:14;;;;;;;12.40;7.60;;;4.30;99.90;;;;;;4938860;28;20266;-87
2020/12/25 09:18:40;;;;;;;12.67;8.13;;;4.20;99.90;;;;;;4974283;28;20256;-87
2020/12/25 09:21:10;;;;;;;12.90;7.63;;;4.70;99.90;;;;;;4956892;28;20281;-86
2020/12/25 09:23:37;;;;;;;11.33;7.80;;;4.40;99.90;;;;;;4974506;28;20540;-86
2020/12/25 09:26:05;;;;;;;11.27;6.87;;;4.40;99.90;;;;;;4973953;28;20250;-87
2020/12/25 09:28:31;;;;;;;14.27;8.60;;;;;;;;;;4974049;28;20179;-85
2020/12/25 09:30:57;;;;;;;13.70;8.53;;;4.30;99.90;;;;;;4956824;28;20223;-86
2020/12/25 09:33:26;;;;;;;15.07;8.87;;;4.30;99.90;;;;;;4956469;28;20186;-87
2020/12/25 09:35:53;;;;;;;13.93;8.33;;;4.20;99.90;;;;;;4957844;28;20190;-88
2020/12/25 09:38:19;;;;;;;16.70;10.10;;;4.20;99.90;;;;;;4982132;28;20232;-86
2020/12/25 09:40:48;;;;;;;16.10;10.20;;;4.30;99.90;;;;;;4957314;28;20657;-88
2020/12/25 09:43:14;;;;;;;15.57;9.27;;;;;;;;;;4975755;28;20213;-88
2020/12/25 09:45:40;;;;;;;13.63;8.13;;;;;;;;;;4976639;28;20643;-88
2020/12/25 09:48:06;;;;;;;12.50;7.93;;;;;;;;;;4957458;28;20214;-88
2020/12/25 09:50:32;;;;;;;10.83;8.20;;;;;;;;;;4962380;28;20196;-87
2020/12/25 09:52:58;;;;;;;11.20;7.83;;;;;;;;;;4967723;28;20190;-85
2020/12/25 09:55:24;;;;;;;11.97;8.30;;;4.20;99.90;;;;;;4958713;28;20261;-87
2020/12/25 09:57:50;;;;;;;11.40;7.50;;;4.20;99.90;;;;;;4924988;28;20189;-86
2020/12/25 10:00:15;;;;;;;11.10;7.43;;;5.70;99.90;;;;;;4975777;28;20280;-84
2020/12/25 10:02:41;;;;;;;12.43;8.73;;;4.20;99.90;;;;;;4956986;28;20189;-87
2020/12/25 10:05:09;;;;;;;11.90;8.30;;;4.30;99.90;;;;;;4973104;28;20186;-86
2020/12/25 10:07:35;;;;;;;13.10;8.23;;;4.30;99.90;;;;;;4956790;28;20220;-87
2020/12/25 10:10:03;;;;;;;13.67;7.90;;;4.50;99.90;;;;;;4941275;28;20643;-86
2020/12/25 10:12:28;;;;;;;13.60;8.63;;;4.40;99.90;;;;;;4973101;28;20201;-87
2020/12/25 10:14:54;;;;;;;12.97;7.83;;;4.50;99.90;;;;;;4956853;28;20193;-87
2020/12/25 10:17:20;;;;;;;11.57;7.87;;;;;;;;;;4946602;28;20196;-87
2020/12/25 10:19:46;;;;;;;13.80;8.60;;;4.40;99.90;;;;;;4941058;28;20292;-86
2020/12/25 10:22:12;;;;;;;16.23;9.63;;;4.70;99.90;;;;;;4972844;28;20586;-85
2020/12/25 10:24:38;;;;;;;14.80;8.80;;;;;;;;;;4941043;28;20549;-87
2020/12/25 10:27:04;;;;;;;19.97;11.53;;;;;;;;;;4972889;28;20662;-86
2020/12/25 10:29:30;;;;;;;14.23;8.80;;;4.50;99.90;;;;;;4940971;28;20190;-86
2020/12/25 10:31:56;;;;;;;12.13;7.73;;;4.50;99.90;;;;;;4956801;28;20721;-85
2020/12/25 10:34:21;;;;;;;10.60;7.20;;;4.50;99.90;;;;;;4921625;29;20229;-86
2020/12/25 10:36:47;;;;;;;11.70;7.80;;;4.30;99.90;;;;;;4954662;29;20541;-85
2020/12/25 10:39:14;;;;;;;9.70;6.53;;;4.20;99.90;;;;;;4960423;28;20882;-85
2020/12/25 10:41:40;;;;;;;13.40;9.30;;;;;;;;;;4953728;29;20271;-89
2020/12/25 10:44:07;;;;;;;10.70;7.13;;;;;;;;;;4969516;28;20188;-88
2020/12/25 10:46:32;;;;;;;10.70;7.30;;;4.10;99.90;;;;;;4959167;28;20264;-85
2020/12/25 10:48:59;;;;;;;13.10;8.47;;;;;;;;;;4956733;28;20188;-86
2020/12/25 10:51:24;;;;;;;11.87;7.57;;;4.50;99.90;;;;;;4975703;28;20191;-85
2020/12/25 10:53:50;;;;;;;9.33;6.30;;;4.00;99.90;;;;;;4951840;29;20192;-89
2020/12/25 10:56:26;;;;;;;16.83;9.23;;;4.10;99.90;;;;;;4956988;28;20695;-85
2020/12/25 10:58:53;;;;;;;13.63;8.83;;;4.10;99.90;;;;;;4958143;29;20189;-86
2020/12/25 11:01:27;;;;;;;11.90;8.33;;;4.10;99.90;;;;;;4940771;29;20216;-85
2020/12/25 11:03:54;;;;;;;12.63;7.93;;;4.20;99.90;;;;;;4957835;29;20186;-86
2020/12/25 11:06:32;;;;;;;15.60;8.73;;;4.40;99.90;;;;;;4940775;29;20191;-84
2020/12/25 11:08:59;;;;;;;12.00;7.50;;;;;;;;;;4958146;29;20193;-87
2020/12/25 11:11:30;;;;;;;10.80;7.17;;;4.20;99.90;;;;;;4956612;28;20191;-86
2020/12/25 11:13:57;;;;;;;12.80;7.30;;;4.90;99.90;;;;;;4961409;28;20192;-86
2020/12/25 11:16:31;;;;;;;10.17;6.87;;;4.30;99.90;;;;;;4972359;28;20232;-85
2020/12/25 11:18:58;;;;;;;10.30;6.43;;;4.30;99.90;;;;;;4956639;29;20556;-85
2020/12/25 11:21:28;;;;;;;15.30;9.43;;;4.30;99.90;;;;;;4956531;29;20180;-84
2020/12/25 11:23:55;;;;;;;12.07;7.33;;;;;;;;;;4956585;29;20186;-84
2020/12/25 11:26:25;;;;;;;11.07;6.77;;;4.40;99.90;;;;;;4957449;29;20173;-86
2020/12/25 11:28:52;;;;;;;10.20;7.07;;;4.40;99.90;;;;;;4957489;29;20189;-85
2020/12/25 11:31:18;;;;;;;9.03;5.50;;;4.50;99.90;;;;;;4956420;29;20243;-85
2020/12/25 11:33:45;;;;;;;6.90;4.53;;;4.30;99.90;;;;;;4955539;28;20728;-86
2020/12/25 11:36:13;;;;;;;10.97;6.00;;;4.40;99.90;;;;;;4968643;28;20678;-84
2020/12/25 11:38:39;;;;;;;6.93;4.70;;;;;;;;;;4961524;28;20187;-85
2020/12/25 11:41:07;;;;;;;6.97;5.00;;;4.40;99.90;;;;;;4972072;28;20189;-86
2020/12/25 11:43:33;;;;;;;6.00;3.77;;;;;;;;;;4955873;29;20185;-86
2020/12/25 11:45:59;;;;;;;7.40;4.77;;;4.40;99.90;;;;;;4940138;29;20202;-86
2020/12/25 11:48:27;;;;;;;5.07;3.17;;;;;;;;;;4955853;29;20596;-87
2020/12/25 11:50:54;;;;;;;8.53;3.83;;;4.40;99.90;;;;;;4972116;28;20199;-87
2020/12/25 11:53:20;;;;;;;7.70;3.93;;;;;;;;;;4970590;28;20238;-87
2020/12/25 11:55:47;;;;;;;8.73;4.93;;;;;;;;;;4988445;28;20198;-87
2020/12/25 11:58:13;;;;;;;9.10;4.50;;;;;;;;;;4985461;28;20196;-88
2020/12/25 12:00:39;;;;;;;8.33;3.80;;;;;;;;;;4991086;28;20217;-87
2020/12/25 12:03:05;;;;;;;5.00;3.07;;;;;;;;;;4991102;28;20189;-87
2020/12/25 12:05:31;;;;;;;3.13;2.30;;;4.40;99.90;;;;;;4958971;28;20646;-86
2020/12/25 12:07:57;;;;;;;4.07;2.90;;;;;;;;;;4974210;28;20213;-86
2020/12/25 12:10:23;;;;;;;7.50;3.30;;;4.30;99.90;;;;;;4981847;28;20638;-86
2020/12/25 12:12:51;;;;;;;8.00;3.50;;;;;;;;;;4932949;28;20190;-86
2020/12/25 12:15:17;;;;;;;3.73;3.10;;;;;;;;;;4959100;28;20288;-86
2020/12/25 12:17:43;;;;;;;5.27;3.20;;;;;;;;;;4958838;28;20315;-87
2020/12/25 12:20:09;;;;;;;6.97;4.00;;;;;;;;;;4974603;28;20207;-87
2020/12/25 12:22:35;;;;;;;8.17;4.53;;;;;;;;;;4974457;28;20217;-87
2020/12/25 12:25:07;;;;;;;8.27;5.23;;;3.80;99.90;;;;;;4974824;28;20714;-88
2020/12/25 12:27:33;;;;;;;11.93;5.23;;;;;;;;;;4974401;28;20211;-86
2020/12/25 12:30:02;;;;;;;10.20;5.70;;;3.70;99.90;;;;;;4990135;28;20192;-87
2020/12/25 12:32:28;;;;;;;10.13;5.90;;;;;;;;;;4966026;28;20176;-87
2020/12/25 12:34:54;;;;;;;9.80;5.27;;;;;;;;;;4990263;28;20737;-87
2020/12/25 12:37:20;;;;;;;9.07;5.17;;;;;;;;;;4951084;28;20204;-87
2020/12/25 12:39:46;;;;;;;10.83;5.50;;;;;;;;;;4974095;28;20193;-87
2020/12/25 12:42:12;;;;;;;11.00;5.93;;;;;;;;;;4974379;28;20195;-87
2020/12/25 12:44:38;;;;;;;12.57;5.83;;;3.80;99.90;;;;;;4974319;28;20184;-88
2020/12/25 12:47:04;;;;;;;10.33;5.20;;;;;;;;;;4958029;28;20292;-89
2020/12/25 12:49:30;;;;;;;10.80;5.43;;;;;;;;;;4956706;28;20206;-87
2020/12/25 12:51:56;;;;;;;10.70;5.83;;;;;;;;;;4972784;28;20190;-90
2020/12/25 12:54:22;;;;;;;7.60;4.47;;;;;;;;;;4988930;28;20190;-90
2020/12/25 12:56:48;;;;;;;9.10;5.40;;;;;;;;;;4973503;28;20679;-89
2020/12/25 12:59:14;;;;;;;11.87;5.37;;;3.80;99.90;;;;;;4989442;28;20187;-89
2020/12/25 13:01:40;;;;;;;8.27;5.43;;;;;;;;;;4972625;28;20273;-88
2020/12/25 13:04:06;;;;;;;12.10;5.93;;;;;;;;;;4972780;28;20603;-90
2020/12/25 13:06:32;;;;;;;9.23;4.03;;;;;;;;;;4972596;28;20223;-88
2020/12/25 13:08:58;;;;;;;10.50;6.00;;;;;;;;;;4989741;28;20649;-88
2020/12/25 13:11:25;;;;;;;7.83;4.70;;;3.60;99.90;;;;;;4975275;28;20191;-89
2020/12/25 13:13:51;;;;;;;8.80;4.70;;;;;;;;;;4971590;28;20213;-86
2020/12/25 13:16:25;;;;;;;9.73;3.87;;;3.60;99.90;;;;;;4973716;28;20186;-87
2020/12/25 13:18:52;;;;;;;5.97;3.70;;;3.60;99.90;;;;;;4957669;28;20212;-88
2020/12/25 13:21:25;;;;;;;8.07;4.73;;;3.60;99.90;;;;;;4973475;28;20249;-87
2020/12/25 13:23:51;;;;;;;9.17;5.10;;;3.60;99.90;;;;;;4989725;28;20178;-87